createdAt,value
2022-08-17T00:01:38.496Z,4.32
2022-08-17T00:04:19.462Z,4.13
2022-08-17T00:06:49.213Z,4.45
2022-08-17T00:09:18.873Z,4.60
2022-08-17T00:12:34.727Z,4.35
2022-08-17T00:14:34.872Z,4.55
2022-08-17T00:17:03.699Z,4.40
2022-08-17T00:19:32.565Z,4.30
2022-08-17T00:22:34.097Z,4.50
2022-08-17T00:24:50.157Z,4.20
2022-08-17T00:27:17.723Z,5.07
2022-08-17T00:29:45.909Z,4.60
2022-08-17T00:33:14.543Z,4.57
2022-08-17T00:35:07.540Z,4.03
2022-08-17T00:37:34.793Z,4.05
2022-08-17T00:40:01.991Z,4.25
2022-08-17T00:42:31.230Z,4.43
2022-08-17T00:44:58.713Z,3.97
2022-08-17T00:47:25.988Z,4.13
2022-08-17T00:49:53.122Z,4.90
2022-08-17T00:52:22.995Z,4.25
2022-08-17T00:54:52.356Z,4.13
2022-08-17T00:57:22.187Z,4.13
2022-08-17T01:00:02.314Z,4.65
2022-08-17T01:02:34.389Z,4.53
2022-08-17T01:05:09.052Z,4.32
2022-08-17T01:07:37.913Z,4.55
2022-08-17T01:10:06.788Z,4.63
2022-08-17T01:12:35.230Z,4.75
2022-08-17T01:15:02.362Z,4.18
2022-08-17T01:17:29.713Z,4.78
2022-08-17T01:19:56.942Z,4.65
2022-08-17T01:22:24.601Z,4.57
2022-08-17T01:24:58.945Z,4.60
2022-08-17T01:27:26.754Z,4.25
2022-08-17T01:29:57.844Z,4.50
2022-08-17T01:32:25.815Z,4.45
2022-08-17T01:34:53.582Z,4.30
2022-08-17T01:37:27.846Z,4.80
2022-08-17T01:39:57.246Z,4.40
2022-08-17T01:42:27.115Z,4.22
2022-08-17T01:44:56.970Z,4.95
2022-08-17T01:47:24.416Z,4.97
2022-08-17T01:49:51.569Z,5.40
2022-08-17T01:52:18.748Z,5.05
2022-08-17T01:54:47.461Z,5.22
2022-08-17T01:57:15.072Z,5.25
2022-08-17T01:59:42.342Z,4.85
2022-08-17T02:02:09.463Z,5.18
2022-08-17T02:04:37.174Z,4.60
2022-08-17T02:07:04.343Z,4.43
2022-08-17T02:09:32.110Z,4.28
2022-08-17T02:12:37.432Z,4.85
2022-08-17T02:14:47.691Z,4.65
2022-08-17T02:17:14.855Z,4.82
2022-08-17T02:19:41.981Z,4.57
2022-08-17T02:22:09.167Z,4.40
2022-08-17T02:24:58.160Z,4.70
2022-08-17T02:27:24.752Z,4.85
2022-08-17T02:29:51.948Z,5.25
2022-08-17T02:32:20.917Z,5.18
2022-08-17T02:34:55.695Z,5.30
2022-08-17T02:37:22.830Z,5.00
2022-08-17T02:39:50.021Z,5.30
2022-08-17T02:42:17.298Z,4.85
2022-08-17T02:44:45.024Z,5.30
2022-08-17T02:47:12.311Z,5.20
2022-08-17T02:49:39.607Z,4.68
2022-08-17T02:52:07.714Z,5.18
2022-08-17T02:54:39.415Z,5.20
2022-08-17T02:57:08.029Z,4.40
2022-08-17T02:59:35.127Z,5.00
2022-08-17T03:02:03.868Z,4.63
2022-08-17T03:04:31.195Z,4.90
2022-08-17T03:07:02.998Z,4.80
2022-08-17T03:09:30.135Z,5.15
2022-08-17T03:12:04.570Z,5.07
2022-08-17T03:14:32.426Z,4.97
2022-08-17T03:16:59.569Z,4.40
2022-08-17T03:19:26.798Z,4.38
2022-08-17T03:21:55.413Z,4.72
2022-08-17T03:24:26.814Z,4.55
2022-08-17T03:26:56.290Z,4.80
2022-08-17T03:29:23.470Z,4.40
2022-08-17T03:31:50.987Z,4.50
2022-08-17T03:34:18.209Z,4.50
2022-08-17T03:36:45.453Z,4.57
2022-08-17T03:39:12.591Z,4.60
2022-08-17T03:41:39.894Z,4.47
2022-08-17T03:44:07.235Z,4.53
2022-08-17T03:46:52.898Z,4.40
2022-08-17T03:49:38.842Z,5.00
2022-08-17T03:52:25.057Z,4.15
2022-08-17T03:55:11.024Z,4.40
2022-08-17T03:57:38.226Z,4.80
2022-08-17T04:00:05.674Z,4.40
2022-08-17T04:02:34.117Z,4.43
2022-08-17T04:05:01.240Z,4.32
2022-08-17T04:07:30.334Z,4.38
2022-08-17T04:09:58.176Z,5.05
2022-08-17T04:12:25.603Z,4.72
2022-08-17T04:14:55.042Z,4.97
2022-08-17T04:17:23.813Z,4.68
2022-08-17T04:19:50.990Z,5.13
2022-08-17T04:22:33.292Z,5.07
2022-08-17T04:25:02.124Z,5.00
2022-08-17T04:27:29.274Z,5.30
2022-08-17T04:29:56.458Z,5.70
2022-08-17T04:33:05.486Z,5.07
2022-08-17T04:35:11.288Z,4.70
2022-08-17T04:37:38.492Z,5.03
2022-08-17T04:40:27.282Z,4.30
2022-08-17T04:43:27.035Z,5.07
2022-08-17T04:45:56.838Z,4.55
2022-08-17T04:48:35.744Z,5.38
2022-08-17T04:51:04.639Z,4.40
2022-08-17T04:53:31.759Z,5.38
2022-08-17T04:55:59.138Z,4.82
2022-08-17T04:58:26.724Z,5.05
2022-08-17T05:00:53.926Z,5.00
2022-08-17T05:03:21.095Z,5.10
2022-08-17T05:05:49.591Z,5.20
2022-08-17T05:08:18.102Z,4.78
2022-08-17T05:10:45.813Z,4.95
2022-08-17T05:13:17.986Z,3.83
2022-08-17T05:15:47.866Z,4.05
2022-08-17T05:18:15.782Z,4.30
2022-08-17T05:20:43.491Z,3.45
2022-08-17T05:23:12.154Z,3.42
2022-08-17T05:25:41.149Z,3.70
2022-08-17T05:28:09.096Z,3.47
2022-08-17T05:30:38.007Z,3.55
2022-08-17T05:33:10.413Z,3.70
2022-08-17T05:35:39.526Z,3.55
2022-08-17T05:38:08.196Z,3.28
2022-08-17T05:40:35.807Z,3.88
2022-08-17T05:43:05.864Z,3.55
2022-08-17T05:45:55.373Z,3.50
2022-08-17T05:48:20.867Z,3.88
2022-08-17T05:51:21.279Z,4.65
2022-08-17T05:54:00.576Z,2.92
2022-08-17T05:57:03.040Z,3.10
2022-08-17T05:59:35.783Z,3.47
2022-08-17T06:02:03.041Z,3.17
2022-08-17T06:04:42.930Z,3.25
2022-08-17T06:07:32.905Z,3.50
2022-08-17T06:10:24.637Z,3.33
2022-08-17T06:12:51.866Z,3.13
2022-08-17T06:15:26.142Z,3.30
2022-08-17T06:17:56.426Z,3.50
2022-08-17T06:20:24.079Z,3.40
2022-08-17T06:22:52.835Z,3.88
2022-08-17T06:25:26.575Z,3.85
2022-08-17T06:27:56.668Z,4.32
2022-08-17T06:30:26.314Z,4.57
2022-08-17T06:32:55.387Z,3.85
2022-08-17T06:35:31.956Z,3.30
2022-08-17T06:38:17.333Z,3.20
2022-08-17T06:41:17.442Z,2.70
2022-08-17T06:43:50.727Z,3.08
2022-08-17T06:46:17.839Z,3.35
2022-08-17T06:48:50.037Z,2.90
2022-08-17T06:51:20.004Z,2.97
2022-08-17T06:53:53.938Z,3.25
2022-08-17T06:56:53.851Z,2.88
2022-08-17T06:59:23.165Z,3.20
2022-08-17T07:01:50.622Z,3.00
2022-08-17T07:04:18.209Z,2.90
2022-08-17T07:06:57.722Z,3.05
2022-08-17T07:09:34.730Z,3.25
2022-08-17T07:12:19.317Z,2.88
2022-08-17T07:14:51.722Z,3.50
2022-08-17T07:19:46.680Z,2.88
2022-08-17T07:22:27.941Z,3.20
2022-08-17T07:24:59.581Z,2.92
2022-08-17T07:27:31.286Z,3.50
2022-08-17T07:30:04.655Z,3.30
2022-08-17T07:32:37.919Z,3.03
2022-08-17T07:35:15.375Z,3.30
2022-08-17T07:37:45.043Z,3.30
2022-08-17T07:40:33.445Z,3.22
2022-08-17T07:43:05.933Z,2.70
2022-08-17T07:48:22.670Z,2.97
2022-08-17T07:50:50.830Z,3.03
2022-08-17T07:53:19.129Z,3.33
2022-08-17T07:55:46.347Z,3.40
2022-08-17T07:58:17.994Z,3.17
2022-08-17T08:00:45.498Z,3.53
2022-08-17T08:03:15.957Z,3.17
2022-08-17T08:05:51.002Z,3.38
2022-08-17T08:08:38.268Z,3.35
2022-08-17T08:11:15.810Z,3.42
2022-08-17T08:13:45.375Z,3.30
2022-08-17T08:16:19.913Z,3.20
2022-08-17T08:18:55.464Z,3.47
2022-08-17T08:21:36.975Z,3.38
2022-08-17T08:24:22.979Z,3.42
2022-08-17T08:27:00.192Z,3.40
2022-08-17T08:29:39.764Z,3.30
2022-08-17T08:32:12.853Z,3.65
2022-08-17T08:35:01.235Z,3.60
2022-08-17T08:37:50.683Z,3.17
2022-08-17T08:40:23.966Z,3.65
2022-08-17T08:43:03.855Z,3.75
2022-08-17T08:45:46.359Z,3.55
2022-08-17T08:48:55.977Z,3.83
2022-08-17T08:51:30.249Z,3.55
2022-08-17T08:54:00.970Z,3.63
2022-08-17T08:57:19.262Z,3.63
2022-08-17T08:59:44.412Z,3.78
2022-08-17T09:02:41.617Z,3.67
2022-08-17T09:05:29.979Z,3.55
2022-08-17T09:08:12.527Z,3.35
2022-08-17T09:10:42.863Z,3.65
2022-08-17T09:13:13.089Z,3.35
2022-08-17T09:15:45.800Z,3.40
2022-08-17T09:19:00.224Z,3.63
2022-08-17T09:21:18.214Z,3.50
2022-08-17T09:23:59.751Z,4.20
2022-08-17T09:26:47.213Z,3.58
2022-08-17T09:29:15.719Z,3.92
2022-08-17T09:31:49.386Z,3.90
2022-08-17T09:34:21.132Z,4.18
2022-08-17T09:36:57.301Z,3.90
2022-08-17T09:39:31.458Z,4.15
2022-08-17T09:42:02.208Z,4.32
2022-08-17T09:44:35.019Z,4.57
2022-08-17T09:47:05.062Z,4.20
2022-08-17T09:49:55.230Z,4.47
2022-08-17T09:52:23.901Z,4.10
2022-08-17T09:54:51.940Z,3.90
2022-08-17T09:57:31.062Z,3.80
2022-08-17T10:00:17.879Z,4.00
2022-08-17T10:03:04.446Z,3.75
2022-08-17T10:05:46.370Z,3.00
2022-08-17T10:08:27.648Z,3.40
2022-08-17T10:11:00.009Z,3.20
2022-08-17T10:16:13.236Z,3.40
2022-08-17T10:18:46.379Z,3.08
2022-08-17T10:21:34.067Z,3.40
2022-08-17T10:24:28.863Z,3.63
2022-08-17T10:26:58.415Z,3.08
2022-08-17T10:29:49.780Z,3.45
2022-08-17T10:32:46.578Z,3.35
2022-08-17T10:35:14.592Z,3.50
2022-08-17T10:38:00.482Z,5.20
2022-08-17T10:40:46.498Z,3.20
2022-08-17T10:43:32.924Z,3.45
2022-08-17T10:46:31.168Z,3.70
2022-08-17T10:49:13.735Z,3.40
2022-08-17T10:51:41.943Z,3.67
2022-08-17T10:54:28.078Z,4.15
2022-08-17T10:56:56.739Z,4.07
2022-08-17T10:59:35.933Z,4.00
2022-08-17T11:02:03.183Z,4.03
2022-08-17T11:04:49.918Z,3.83
2022-08-17T11:07:27.893Z,3.88
2022-08-17T11:10:00.974Z,4.18
2022-08-17T11:12:54.519Z,3.75
2022-08-17T11:15:45.783Z,3.80
2022-08-17T11:18:22.201Z,3.35
2022-08-17T11:21:07.947Z,3.83
2022-08-17T11:23:44.956Z,4.03
2022-08-17T11:26:23.029Z,3.85
2022-08-17T11:28:52.872Z,3.97
2022-08-17T11:31:38.747Z,3.80
2022-08-17T11:34:26.715Z,3.90
2022-08-17T11:37:03.432Z,3.95
2022-08-17T11:39:40.778Z,4.00
2022-08-17T11:42:26.814Z,4.00
2022-08-17T11:44:58.929Z,3.88
2022-08-17T11:48:26.678Z,3.75
2022-08-17T11:51:26.190Z,3.75
2022-08-17T11:54:21.515Z,3.97
2022-08-17T11:56:45.303Z,3.70
2022-08-17T11:59:27.686Z,3.60
2022-08-17T12:01:56.702Z,3.58
2022-08-17T12:04:34.087Z,3.60
2022-08-17T12:07:07.191Z,3.50
2022-08-17T12:09:35.079Z,3.60
2022-08-17T12:12:12.818Z,3.78
2022-08-17T12:15:09.095Z,3.40
2022-08-17T12:17:41.613Z,2.97
2022-08-17T12:20:11.834Z,3.40
2022-08-17T12:22:45.874Z,3.38
2022-08-17T12:25:21.178Z,3.60
2022-08-17T12:28:06.570Z,3.58
2022-08-17T12:30:34.864Z,3.20
2022-08-17T12:33:02.443Z,3.60
2022-08-17T12:35:33.178Z,3.30
2022-08-17T12:38:01.112Z,3.33
2022-08-17T12:40:31.382Z,2.95
2022-08-17T12:43:00.782Z,3.10
2022-08-17T12:45:29.299Z,2.72
2022-08-17T12:48:06.496Z,2.55
2022-08-17T12:50:33.848Z,2.90
2022-08-17T12:53:02.523Z,2.55
2022-08-17T12:55:33.986Z,2.88
2022-08-17T12:58:01.706Z,2.60
2022-08-17T13:00:29.288Z,2.90
2022-08-17T13:03:01.179Z,2.67
2022-08-17T13:05:31.487Z,3.13
2022-08-17T13:08:00.214Z,3.15
2022-08-17T13:10:33.276Z,2.83
2022-08-17T13:13:05.173Z,3.00
2022-08-17T13:15:38.174Z,2.75
2022-08-17T13:18:32.576Z,3.00
2022-08-17T13:20:59.898Z,2.28
2022-08-17T13:23:29.190Z,2.55
2022-08-17T13:25:57.822Z,2.70
2022-08-17T13:28:35.455Z,2.38
2022-08-17T13:31:24.043Z,2.40
2022-08-17T13:33:51.177Z,2.63
2022-08-17T13:36:31.992Z,2.97
2022-08-17T13:39:18.813Z,2.80
2022-08-17T13:41:46.703Z,2.38
2022-08-17T13:44:40.570Z,2.40
2022-08-17T13:47:17.738Z,2.70
2022-08-17T13:49:48.755Z,2.35
2022-08-17T13:52:34.977Z,2.70
2022-08-17T13:55:07.763Z,2.70
2022-08-17T13:57:35.454Z,3.20
2022-08-17T14:00:17.437Z,2.63
2022-08-17T14:02:44.603Z,2.80
2022-08-17T14:05:11.974Z,2.60
2022-08-17T14:07:40.759Z,2.72
2022-08-17T14:10:15.501Z,2.97
2022-08-17T14:12:43.413Z,3.08
2022-08-17T14:15:11.627Z,3.05
2022-08-17T14:17:39.354Z,3.13
2022-08-17T14:20:09.419Z,2.92
2022-08-17T14:22:37.628Z,2.70
2022-08-17T14:25:05.796Z,3.10
2022-08-17T14:27:51.838Z,3.13
2022-08-17T14:30:22.305Z,3.08
2022-08-17T14:32:51.734Z,2.75
2022-08-17T14:35:18.927Z,3.00
2022-08-17T14:37:46.132Z,3.50
2022-08-17T14:40:14.464Z,3.15
2022-08-17T14:42:43.226Z,3.05
2022-08-17T14:45:29.554Z,3.20
2022-08-17T14:48:01.573Z,3.17
2022-08-17T14:50:28.747Z,3.17
2022-08-17T14:52:58.225Z,3.47
2022-08-17T14:55:26.627Z,3.13
2022-08-17T14:57:53.766Z,3.25
2022-08-17T15:00:20.934Z,3.33
2022-08-17T15:02:53.827Z,3.15
2022-08-17T15:05:22.595Z,2.97
2022-08-17T15:07:49.855Z,3.22
2022-08-17T15:10:17.676Z,3.40
2022-08-17T15:12:44.836Z,3.33
2022-08-17T15:15:14.349Z,3.50
2022-08-17T15:17:44.756Z,3.53
2022-08-17T15:20:16.778Z,3.10
2022-08-17T15:22:44.602Z,3.08
2022-08-17T15:25:12.393Z,3.00
2022-08-17T15:27:40.305Z,3.08
2022-08-17T15:30:08.095Z,3.42
2022-08-17T15:32:37.869Z,2.90
2022-08-17T15:35:05.966Z,2.90
2022-08-17T15:37:33.382Z,3.55
2022-08-17T15:40:01.148Z,3.15
2022-08-17T15:42:29.313Z,3.00
2022-08-17T15:44:56.508Z,3.10
2022-08-17T15:47:23.981Z,3.00
2022-08-17T15:49:55.422Z,2.88
2022-08-17T15:52:26.727Z,2.80
2022-08-17T15:54:55.614Z,2.92
2022-08-17T15:57:25.607Z,3.15
2022-08-17T15:59:58.471Z,2.80
2022-08-17T16:03:45.550Z,2.70
2022-08-17T16:05:24.887Z,2.92
2022-08-17T16:07:53.013Z,3.00
2022-08-17T16:10:21.156Z,3.08
2022-08-17T16:12:49.696Z,3.30
2022-08-17T16:15:17.448Z,2.70
2022-08-17T16:17:44.629Z,3.40
2022-08-17T16:20:19.627Z,3.28
2022-08-17T16:22:48.460Z,3.17
2022-08-17T16:25:18.709Z,2.88
2022-08-17T16:27:46.188Z,3.10
2022-08-17T16:30:17.325Z,3.10
2022-08-17T16:32:45.837Z,3.40
2022-08-17T16:35:17.372Z,2.88
2022-08-17T16:37:45.821Z,3.28
2022-08-17T16:40:14.097Z,4.22
2022-08-17T16:42:41.519Z,3.75
2022-08-17T16:45:10.429Z,3.25
2022-08-17T16:47:37.986Z,2.88
2022-08-17T16:50:07.001Z,3.25
2022-08-17T16:52:34.570Z,3.10
2022-08-17T16:55:02.737Z,3.40
2022-08-17T16:57:30.020Z,3.13
2022-08-17T16:59:57.612Z,2.83
2022-08-17T17:02:31.231Z,3.08
2022-08-17T17:05:02.974Z,3.40
2022-08-17T17:07:44.907Z,2.90
2022-08-17T17:10:14.841Z,3.10
2022-08-17T17:13:03.133Z,2.70
2022-08-17T17:15:33.734Z,3.20
2022-08-17T17:18:06.786Z,3.05
2022-08-17T17:20:40.039Z,3.20
2022-08-17T17:23:15.043Z,3.05
2022-08-17T17:25:54.641Z,3.10
2022-08-17T17:28:26.678Z,3.17
2022-08-17T17:31:01.973Z,3.58
2022-08-17T17:33:29.363Z,3.50
2022-08-17T17:36:02.558Z,3.50
2022-08-17T17:38:32.838Z,3.20
2022-08-17T17:41:06.438Z,3.35
2022-08-17T17:43:41.105Z,3.40
2022-08-17T17:46:27.281Z,3.08
2022-08-17T17:48:56.747Z,3.60
2022-08-17T17:51:55.704Z,3.60
2022-08-17T17:54:24.035Z,3.80
2022-08-17T17:56:55.953Z,3.40
2022-08-17T17:59:47.324Z,3.80
2022-08-17T18:02:51.431Z,3.70
2022-08-17T18:05:28.286Z,3.45
2022-08-17T18:08:10.792Z,3.80
2022-08-17T18:10:50.803Z,4.13
2022-08-17T18:13:26.031Z,3.70
2022-08-17T18:15:54.773Z,3.63
2022-08-17T18:18:37.457Z,4.22
2022-08-17T18:23:35.235Z,3.30
2022-08-17T18:26:02.570Z,3.90
2022-08-17T18:28:38.880Z,4.05
2022-08-17T18:31:06.044Z,4.50
2022-08-17T18:33:33.260Z,4.15
2022-08-17T18:36:01.341Z,4.00
2022-08-17T18:38:28.750Z,3.90
2022-08-17T18:41:03.895Z,4.03
2022-08-17T18:43:52.802Z,4.15
2022-08-17T18:46:35.100Z,4.38
2022-08-17T18:49:04.247Z,4.55
2022-08-17T18:51:42.252Z,4.05
2022-08-17T18:54:16.150Z,4.57
2022-08-17T18:57:03.550Z,4.63
2022-08-17T18:59:44.291Z,4.82
2022-08-17T19:02:20.696Z,4.55
2022-08-17T19:05:10.478Z,4.57
2022-08-17T19:07:42.082Z,4.57
2022-08-17T19:10:21.623Z,5.25
2022-08-17T19:13:00.859Z,4.88
2022-08-17T19:15:35.427Z,4.38
2022-08-17T19:18:15.101Z,5.25
2022-08-17T19:20:46.189Z,4.72
2022-08-17T19:23:21.158Z,5.75
2022-08-17T19:25:53.762Z,4.93
2022-08-17T19:30:50.373Z,5.00
2022-08-17T19:33:17.642Z,5.15
2022-08-17T19:35:58.843Z,5.15
2022-08-17T19:38:35.289Z,4.97
2022-08-17T19:41:05.717Z,4.97
2022-08-17T19:43:51.334Z,4.35
2022-08-17T19:46:18.496Z,4.63
2022-08-17T19:48:45.650Z,4.53
2022-08-17T19:51:26.386Z,4.65
2022-08-17T19:54:06.742Z,4.47
2022-08-17T19:56:43.129Z,4.15
2022-08-17T19:59:29.607Z,4.70
2022-08-17T20:04:31.892Z,4.82
2022-08-17T20:07:02.748Z,4.80
2022-08-17T20:09:36.129Z,4.90
2022-08-17T20:12:11.593Z,4.43
2022-08-17T20:14:53.488Z,4.68
2022-08-17T20:17:24.357Z,5.20
2022-08-17T20:19:55.383Z,4.60
2022-08-17T20:22:36.925Z,5.20
2022-08-17T20:25:24.089Z,4.65
2022-08-17T20:28:05.698Z,4.70
2022-08-17T20:30:40.997Z,4.75
2022-08-17T20:33:12.490Z,4.60
2022-08-17T20:35:40.897Z,4.90
2022-08-17T20:38:10.481Z,5.03
2022-08-17T20:40:39.570Z,5.20
2022-08-17T20:43:25.240Z,5.10
2022-08-17T20:46:18.926Z,4.85
2022-08-17T20:48:47.495Z,5.55
2022-08-17T20:51:23.718Z,4.97
2022-08-17T20:53:51.797Z,4.10
2022-08-17T20:56:37.831Z,4.78
2022-08-17T20:59:04.949Z,4.70
2022-08-17T21:01:37.204Z,4.32
2022-08-17T21:04:08.287Z,4.60
2022-08-17T21:06:55.379Z,4.80
2022-08-17T21:09:29.739Z,4.78
2022-08-17T21:12:03.963Z,4.95
2022-08-17T21:14:45.389Z,5.07
2022-08-17T21:17:39.705Z,4.72
2022-08-17T21:20:15.008Z,4.90
2022-08-17T21:23:05.238Z,5.15
2022-08-17T21:25:46.352Z,4.45
2022-08-17T21:28:34.176Z,4.90
2022-08-17T21:31:08.439Z,4.35
2022-08-17T21:33:39.964Z,4.28
2022-08-17T21:36:13.142Z,4.40
2022-08-17T21:38:43.946Z,4.25
2022-08-17T21:41:22.177Z,4.03
2022-08-17T21:43:51.112Z,4.20
2022-08-17T21:46:24.375Z,4.00
2022-08-17T21:48:54.653Z,3.90
2022-08-17T21:51:27.434Z,4.03
2022-08-17T21:53:56.441Z,4.28
2022-08-17T21:56:25.843Z,4.13
2022-08-17T21:58:59.006Z,4.18
2022-08-17T22:01:28.039Z,3.85
2022-08-17T22:04:04.007Z,4.07
2022-08-17T22:06:35.412Z,4.15
2022-08-17T22:09:07.719Z,4.45
2022-08-17T22:11:48.125Z,4.70
2022-08-17T22:14:21.206Z,4.95
2022-08-17T22:16:48.636Z,5.10
2022-08-17T22:19:15.970Z,5.57
2022-08-17T22:21:43.110Z,6.25
2022-08-17T22:24:21.481Z,5.57
2022-08-17T22:27:03.300Z,5.60
2022-08-17T22:29:57.665Z,5.78
2022-08-17T22:32:31.258Z,5.50
2022-08-17T22:35:18.622Z,4.78
2022-08-17T22:37:46.174Z,5.78
2022-08-17T22:40:24.451Z,6.25
2022-08-17T22:42:51.636Z,6.53
2022-08-17T22:45:18.775Z,6.97
2022-08-17T22:47:48.844Z,7.03
2022-08-17T22:50:23.315Z,7.72
2022-08-17T22:53:19.622Z,7.68
2022-08-17T22:56:13.186Z,7.82
2022-08-17T22:59:11.138Z,7.20
2022-08-17T23:01:39.106Z,7.53
2022-08-17T23:04:07.735Z,8.02
2022-08-17T23:06:36.150Z,8.30
2022-08-17T23:09:05.706Z,8.77
2022-08-17T23:11:49.442Z,9.63
2022-08-17T23:14:19.075Z,9.63
2022-08-17T23:16:46.730Z,10.82
2022-08-17T23:19:15.771Z,11.85
2022-08-17T23:21:44.849Z,10.77
2022-08-17T23:24:14.662Z,11.90
2022-08-17T23:26:41.819Z,13.82
2022-08-17T23:29:09.383Z,13.93
2022-08-17T23:31:38.533Z,13.13
2022-08-17T23:34:07.809Z,13.45
2022-08-17T23:36:36.461Z,13.98
2022-08-17T23:39:03.992Z,14.00
2022-08-17T23:41:33.640Z,13.18
2022-08-17T23:44:01.491Z,14.40
2022-08-17T23:46:28.687Z,13.13
2022-08-17T23:48:55.835Z,13.32
2022-08-17T23:51:25.295Z,13.27
2022-08-17T23:53:55.468Z,14.00
2022-08-17T23:56:28.667Z,12.75
2022-08-17T23:58:56.418Z,12.82
